Time,TemperatureF,DewpointF,PressureIn,WindDirection,WindDirectionDegrees,WindSpeedMPH,WindSpeedGustMPH,Humidity,HourlyPrecipIn,Conditions,Clouds,dailyrainin,SoftwareType,DateUTC
2013-07-28 00:01:00,62.9,60.5,29.96,WSW,251,0.0,0.0,92,0.00,,,0.00,Wunderground v.1.15,2013-07-28 05:01:00,
2013-07-28 00:07:00,62.9,60.5,29.97,WSW,252,0.0,0.0,92,0.00,,,0.00,Wunderground v.1.15,2013-07-28 05:07:00,
2013-07-28 00:12:00,62.7,60.3,29.97,WSW,252,0.0,0.0,92,0.00,,,0.00,Wunderground v.1.15,2013-07-28 05:12:00,
2013-07-28 00:18:00,62.5,60.1,29.97,WSW,251,0.0,0.0,92,0.00,,,0.00,Wunderground v.1.15,2013-07-28 05:18:00,
2013-07-28 00:24:00,62.3,60.2,29.97,WSW,251,0.0,0.0,93,0.00,,,0.00,Wunderground v.1.15,2013-07-28 05:24:00,
2013-07-28 00:30:00,62.2,60.2,29.97,WSW,251,0.0,0.0,93,0.00,,,0.00,Wunderground v.1.15,2013-07-28 05:30:00,
2013-07-28 00:35:00,62.2,60.2,29.97,WSW,252,0.0,0.0,93,0.00,,,0.00,Wunderground v.1.15,2013-07-28 05:35:00,
2013-07-28 00:41:00,62.1,60.4,29.97,WSW,252,0.0,0.0,94,0.00,,,0.00,Wunderground v.1.15,2013-07-28 05:41:00,
2013-07-28 00:46:00,62.2,60.5,29.97,WSW,252,0.0,0.0,94,0.00,,,0.00,Wunderground v.1.15,2013-07-28 05:46:00,
2013-07-28 00:52:00,62.1,60.4,29.97,WSW,248,0.0,0.0,94,0.00,,,0.00,Wunderground v.1.15,2013-07-28 05:52:00,
2013-07-28 00:58:00,62.1,60.4,29.97,WSW,248,0.0,0.0,94,0.00,,,0.00,Wunderground v.1.15,2013-07-28 05:58:00,
2013-07-28 01:04:00,62.0,60.3,29.97,WSW,248,0.0,0.0,94,0.00,,,0.00,Wunderground v.1.15,2013-07-28 06:04:00,
2013-07-28 01:10:00,62.1,60.4,29.98,WSW,248,0.0,0.0,94,0.00,,,0.00,Wunderground v.1.15,2013-07-28 06:10:00,
2013-07-28 01:16:00,62.1,60.4,29.98,WSW,248,0.0,0.0,94,0.00,,,0.00,Wunderground v.1.15,2013-07-28 06:16:00,
2013-07-28 01:22:00,62.1,60.7,29.98,WSW,248,0.0,0.0,95,0.00,,,0.00,Wunderground v.1.15,2013-07-28 06:22:00,
2013-07-28 01:28:00,62.0,60.6,29.98,WSW,249,0.0,0.0,95,0.00,,,0.00,Wunderground v.1.15,2013-07-28 06:28:00,
2013-07-28 01:34:00,62.1,60.7,29.98,WSW,248,0.0,0.0,95,0.00,,,0.00,Wunderground v.1.15,2013-07-28 06:34:00,
2013-07-28 01:39:00,62.1,60.7,29.98,WSW,248,0.0,0.0,95,0.00,,,0.00,Wunderground v.1.15,2013-07-28 06:39:00,
2013-07-28 01:45:00,62.1,60.7,29.97,WSW,248,0.0,0.0,95,0.00,,,0.00,Wunderground v.1.15,2013-07-28 06:45:00,
2013-07-28 01:51:00,62.1,60.7,29.97,WSW,248,0.0,0.0,95,0.00,,,0.00,Wunderground v.1.15,2013-07-28 06:51:00,
2013-07-28 01:57:00,62.1,60.7,29.97,WSW,248,0.0,0.0,95,0.00,,,0.00,Wunderground v.1.15,2013-07-28 06:57:00,
2013-07-28 02:02:00,62.1,60.7,29.97,WSW,248,0.0,0.0,95,0.00,,,0.00,Wunderground v.1.15,2013-07-28 07:02:00,
2013-07-28 02:07:00,62.1,60.7,29.97,WSW,248,0.0,0.0,95,0.00,,,0.00,Wunderground v.1.15,2013-07-28 07:07:00,
2013-07-28 02:12:00,62.1,60.7,29.98,WSW,249,0.0,0.0,95,0.00,,,0.00,Wunderground v.1.15,2013-07-28 07:12:00,
2013-07-28 02:17:00,62.1,60.7,29.98,WSW,252,0.0,0.0,95,0.00,,,0.00,Wunderground v.1.15,2013-07-28 07:17:00,
2013-07-28 02:22:00,62.1,60.7,29.98,WSW,252,0.0,0.0,95,0.00,,,0.00,Wunderground v.1.15,2013-07-28 07:22:00,
2013-07-28 02:27:00,62.1,60.7,29.98,WSW,252,0.0,0.0,95,0.00,,,0.00,Wunderground v.1.15,2013-07-28 07:27:00,
2013-07-28 02:32:00,62.0,60.6,29.98,WSW,248,1.0,1.0,95,0.00,,,0.00,Wunderground v.1.15,2013-07-28 07:32:00,
2013-07-28 02:37:00,61.8,60.4,29.98,WSW,249,0.0,1.0,95,0.00,,,0.00,Wunderground v.1.15,2013-07-28 07:37:00,
2013-07-28 02:42:00,61.8,60.4,29.98,West,266,0.0,1.0,95,0.00,,,0.00,Wunderground v.1.15,2013-07-28 07:42:00,
2013-07-28 02:47:00,61.7,60.3,29.98,West,261,0.0,1.0,95,0.00,,,0.00,Wunderground v.1.15,2013-07-28 07:47:00,
2013-07-28 02:52:00,61.7,60.3,29.97,West,262,0.0,0.0,95,0.00,,,0.00,Wunderground v.1.15,2013-07-28 07:52:00,
2013-07-28 02:57:00,61.7,60.3,29.97,West,262,0.0,0.0,95,0.00,,,0.00,Wunderground v.1.15,2013-07-28 07:57:00,
2013-07-28 03:02:00,61.7,60.3,29.97,West,261,0.0,0.0,95,0.00,,,0.00,Wunderground v.1.15,2013-07-28 08:02:00,
2013-07-28 03:07:00,61.8,60.4,29.97,West,262,0.0,0.0,95,0.00,,,0.00,Wunderground v.1.15,2013-07-28 08:07:00,
2013-07-28 03:12:00,62.0,60.6,29.98,West,262,0.0,0.0,95,0.00,,,0.00,Wunderground v.1.15,2013-07-28 08:12:00,
2013-07-28 03:17:00,62.1,60.7,29.97,West,262,0.0,0.0,95,0.00,,,0.00,Wunderground v.1.15,2013-07-28 08:17:00,
2013-07-28 03:22:00,62.3,60.8,29.97,West,262,0.0,0.0,95,0.00,,,0.00,Wunderground v.1.15,2013-07-28 08:22:00,
2013-07-28 03:28:00,62.4,60.9,29.97,West,261,0.0,0.0,95,0.00,,,0.00,Wunderground v.1.15,2013-07-28 08:28:00,
2013-07-28 03:33:00,62.4,60.9,29.97,West,262,0.0,0.0,95,0.00,,,0.00,Wunderground v.1.15,2013-07-28 08:33:00,
2013-07-28 03:38:00,62.5,61.0,29.96,SW,233,0.0,1.0,95,0.00,,,0.00,Wunderground v.1.15,2013-07-28 08:38:00,
2013-07-28 03:43:00,62.4,60.9,29.96,WSW,253,0.0,1.0,95,0.00,,,0.00,Wunderground v.1.15,2013-07-28 08:43:00,
2013-07-28 03:48:00,62.3,60.6,29.96,WSW,253,0.0,1.0,94,0.00,,,0.00,Wunderground v.1.15,2013-07-28 08:48:00,
2013-07-28 03:53:00,62.2,60.8,29.97,WSW,253,0.0,0.0,95,0.00,,,0.00,Wunderground v.1.15,2013-07-28 08:53:00,
2013-07-28 03:58:00,62.3,60.8,29.96,WSW,252,0.0,0.0,95,0.00,,,0.00,Wunderground v.1.15,2013-07-28 08:58:00,
2013-07-28 04:03:00,62.3,60.8,29.97,WSW,250,1.0,1.0,95,0.00,,,0.00,Wunderground v.1.15,2013-07-28 09:03:00,
2013-07-28 04:08:00,62.4,60.9,29.95,WSW,250,0.0,1.0,95,0.00,,,0.00,Wunderground v.1.15,2013-07-28 09:08:00,
2013-07-28 04:13:00,62.4,60.9,29.95,WSW,250,0.0,0.0,95,0.00,,,0.00,Wunderground v.1.15,2013-07-28 09:13:00,
2013-07-28 04:18:00,62.4,60.7,29.95,WSW,250,0.0,1.0,94,0.00,,,0.00,Wunderground v.1.15,2013-07-28 09:18:00,
2013-07-28 04:23:00,62.3,60.6,29.95,WSW,250,0.0,0.0,94,0.00,,,0.00,Wunderground v.1.15,2013-07-28 09:23:00,
2013-07-28 04:28:00,62.3,60.8,29.96,WSW,250,0.0,0.0,95,0.00,,,0.00,Wunderground v.1.15,2013-07-28 09:28:00,
2013-07-28 04:33:00,62.6,61.1,29.96,ENE,69,0.0,1.0,95,0.00,,,0.00,Wunderground v.1.15,2013-07-28 09:33:00,
2013-07-28 04:38:00,62.8,61.3,29.96,ENE,70,0.0,1.0,95,0.00,,,0.00,Wunderground v.1.15,2013-07-28 09:38:00,
2013-07-28 04:43:00,63.0,61.5,29.97,ENE,70,0.0,0.0,95,0.00,,,0.00,Wunderground v.1.15,2013-07-28 09:43:00,
2013-07-28 04:48:00,63.1,61.6,29.97,ENE,70,0.0,0.0,95,0.00,,,0.00,Wunderground v.1.15,2013-07-28 09:48:00,
2013-07-28 04:53:00,63.2,62.0,29.97,ENE,70,0.0,0.0,96,0.00,,,0.00,Wunderground v.1.15,2013-07-28 09:53:00,
2013-07-28 04:58:00,63.2,61.7,29.98,WNW,285,0.0,0.0,95,0.00,,,0.00,Wunderground v.1.15,2013-07-28 09:58:00,
2013-07-28 05:03:00,63.0,61.5,29.99,WNW,285,0.0,0.0,95,0.00,,,0.00,Wunderground v.1.15,2013-07-28 10:03:00,
2013-07-28 05:08:00,62.9,61.4,30.00,WNW,285,0.0,0.0,95,0.00,,,0.00,Wunderground v.1.15,2013-07-28 10:08:00,
2013-07-28 05:13:00,62.9,61.4,29.99,SW,228,1.0,1.0,95,0.00,,,0.00,Wunderground v.1.15,2013-07-28 10:13:00,
2013-07-28 05:18:00,62.9,61.4,29.98,SSE,150,0.0,1.0,95,0.00,,,0.00,Wunderground v.1.15,2013-07-28 10:18:00,
2013-07-28 05:23:00,63.0,61.5,29.98,SE,136,0.0,0.0,95,0.00,,,0.00,Wunderground v.1.15,2013-07-28 10:23:00,
2013-07-28 05:28:00,63.1,61.6,29.98,SE,136,0.0,0.0,95,0.00,,,0.00,Wunderground v.1.15,2013-07-28 10:28:00,
2013-07-28 05:33:00,63.0,61.5,29.99,West,264,1.0,2.0,95,0.00,,,0.00,Wunderground v.1.15,2013-07-28 10:33:00,
2013-07-28 05:38:00,62.9,61.4,29.99,West,264,0.0,2.0,95,0.00,,,0.00,Wunderground v.1.15,2013-07-28 10:38:00,
2013-07-28 05:43:00,62.8,61.3,29.99,WSW,256,1.0,1.0,95,0.00,,,0.00,Wunderground v.1.15,2013-07-28 10:43:00,
2013-07-28 05:47:00,62.8,61.3,29.99,West,259,0.0,1.0,95,0.00,,,0.00,Wunderground v.1.15,2013-07-28 10:47:00,
2013-07-28 05:52:00,62.8,61.3,29.99,SW,222,0.0,1.0,95,0.00,,,0.00,Wunderground v.1.15,2013-07-28 10:52:00,
2013-07-28 05:57:00,62.8,61.3,30.00,SW,222,0.0,1.0,95,0.00,,,0.00,Wunderground v.1.15,2013-07-28 10:57:00,
2013-07-28 06:03:00,62.7,61.2,30.00,SW,222,0.0,1.0,95,0.00,,,0.00,Wunderground v.1.15,2013-07-28 11:03:00,
2013-07-28 06:08:00,62.7,61.2,30.00,SW,222,1.0,1.0,95,0.00,,,0.00,Wunderground v.1.15,2013-07-28 11:08:00,
2013-07-28 06:13:00,62.8,61.3,29.99,ESE,120,1.0,2.0,95,0.00,,,0.00,Wunderground v.1.15,2013-07-28 11:13:00,
2013-07-28 06:18:00,62.8,61.3,29.98,West,259,1.0,2.0,95,0.00,,,0.00,Wunderground v.1.15,2013-07-28 11:18:00,
2013-07-28 06:23:00,62.8,61.3,29.99,NW,316,0.0,1.0,95,0.00,,,0.00,Wunderground v.1.15,2013-07-28 11:23:00,
2013-07-28 06:28:00,62.8,61.3,30.00,NW,316,0.0,1.0,95,0.00,,,0.00,Wunderground v.1.15,2013-07-28 11:28:00,
2013-07-28 06:33:00,63.0,61.5,30.00,NW,316,0.0,0.0,95,0.00,,,0.00,Wunderground v.1.15,2013-07-28 11:33:00,
2013-07-28 06:38:00,63.1,61.6,30.00,NW,316,0.0,0.0,95,0.00,,,0.00,Wunderground v.1.15,2013-07-28 11:38:00,
2013-07-28 06:43:00,63.3,61.8,29.99,NW,314,0.0,0.0,95,0.00,,,0.00,Wunderground v.1.15,2013-07-28 11:43:00,
2013-07-28 06:48:00,63.3,61.8,29.99,NW,314,0.0,0.0,95,0.00,,,0.00,Wunderground v.1.15,2013-07-28 11:48:00,
2013-07-28 06:53:00,63.4,61.9,29.99,NW,304,1.0,1.0,95,0.00,,,0.00,Wunderground v.1.15,2013-07-28 11:53:00,
2013-07-28 06:58:00,63.3,61.8,29.99,NW,304,0.0,1.0,95,0.00,,,0.00,Wunderground v.1.15,2013-07-28 11:58:00,
2013-07-28 07:03:00,63.2,61.7,29.99,NW,304,0.0,1.0,95,0.00,,,0.00,Wunderground v.1.15,2013-07-28 12:03:00,
2013-07-28 07:08:00,63.2,61.7,29.99,NW,304,0.0,1.0,95,0.00,,,0.00,Wunderground v.1.15,2013-07-28 12:08:00,
2013-07-28 07:13:00,63.3,62.1,30.00,NW,304,0.0,0.0,96,0.00,,,0.00,Wunderground v.1.15,2013-07-28 12:13:00,
2013-07-28 07:18:00,63.5,62.3,30.00,NW,304,0.0,1.0,96,0.00,,,0.00,Wunderground v.1.15,2013-07-28 12:18:00,
2013-07-28 07:23:00,63.7,62.5,30.00,SW,233,1.0,1.0,96,0.00,,,0.00,Wunderground v.1.15,2013-07-28 12:23:00,
2013-07-28 07:28:00,63.7,62.2,30.00,West,266,1.0,2.0,95,0.00,,,0.00,Wunderground v.1.15,2013-07-28 12:28:00,
2013-07-28 07:33:00,63.5,62.0,30.00,West,276,1.0,1.0,95,0.00,,,0.00,Wunderground v.1.15,2013-07-28 12:33:00,
2013-07-28 07:38:00,63.4,61.9,30.00,West,281,0.0,1.0,95,0.00,,,0.00,Wunderground v.1.15,2013-07-28 12:38:00,
2013-07-28 07:43:00,63.5,62.0,30.00,WSW,246,0.0,0.0,95,0.00,,,0.00,Wunderground v.1.15,2013-07-28 12:43:00,
2013-07-28 07:48:00,63.7,62.2,30.00,WSW,246,0.0,0.0,95,0.00,,,0.00,Wunderground v.1.15,2013-07-28 12:48:00,
2013-07-28 07:52:00,63.9,62.4,30.00,WSW,246,0.0,0.0,95,0.00,,,0.00,Wunderground v.1.15,2013-07-28 12:52:00,
2013-07-28 07:58:00,64.1,62.3,30.00,South,184,0.0,0.0,94,0.00,,,0.00,Wunderground v.1.15,2013-07-28 12:58:00,
2013-07-28 08:03:00,64.2,62.4,30.00,ESE,121,0.0,0.0,94,0.00,,,0.00,Wunderground v.1.15,2013-07-28 13:03:00,
2013-07-28 08:08:00,64.3,62.5,30.01,ESE,121,0.0,0.0,94,0.00,,,0.00,Wunderground v.1.15,2013-07-28 13:08:00,
2013-07-28 08:13:00,64.5,62.7,30.01,ESE,121,0.0,0.0,94,0.00,,,0.00,Wunderground v.1.15,2013-07-28 13:13:00,
2013-07-28 08:18:00,64.7,62.9,30.02,ESE,121,0.0,0.0,94,0.00,,,0.00,Wunderground v.1.15,2013-07-28 13:18:00,
2013-07-28 08:23:00,64.9,63.1,30.02,ESE,121,0.0,0.0,94,0.00,,,0.00,Wunderground v.1.15,2013-07-28 13:23:00,
2013-07-28 08:28:00,65.0,62.6,30.01,ENE,61,1.0,2.0,92,0.00,,,0.00,Wunderground v.1.15,2013-07-28 13:28:00,
2013-07-28 08:34:00,65.1,62.4,30.01,East,101,1.0,1.0,91,0.00,,,0.00,Wunderground v.1.15,2013-07-28 13:34:00,
2013-07-28 08:40:00,65.2,62.2,30.01,ESE,121,1.0,1.0,90,0.00,,,0.00,Wunderground v.1.15,2013-07-28 13:40:00,
2013-07-28 08:45:00,65.2,62.2,30.00,ESE,120,0.0,2.0,90,0.00,,,0.00,Wunderground v.1.15,2013-07-28 13:45:00,
2013-07-28 08:51:00,65.3,62.0,30.01,NE,49,0.0,1.0,89,0.00,,,0.00,Wunderground v.1.15,2013-07-28 13:51:00,
2013-07-28 08:57:00,65.5,62.2,30.00,SE,127,0.0,1.0,89,0.00,,,0.00,Wunderground v.1.15,2013-07-28 13:57:00,
2013-07-28 09:02:00,65.7,62.7,30.00,SE,127,0.0,0.0,90,0.00,,,0.00,Wunderground v.1.15,2013-07-28 14:02:00,
2013-07-28 09:07:00,65.9,62.9,30.00,WSW,250,1.0,2.0,90,0.00,,,0.00,Wunderground v.1.15,2013-07-28 14:07:00,
2013-07-28 09:12:00,65.9,62.6,30.01,WSW,249,1.0,1.0,89,0.00,,,0.00,Wunderground v.1.15,2013-07-28 14:12:00,
2013-07-28 09:17:00,66.2,63.2,30.01,SW,217,1.0,1.0,90,0.00,,,0.00,Wunderground v.1.15,2013-07-28 14:17:00,
2013-07-28 09:22:00,66.5,63.8,30.00,SW,236,1.0,1.0,91,0.00,,,0.00,Wunderground v.1.15,2013-07-28 14:22:00,
2013-07-28 09:27:00,66.9,64.5,30.00,WSW,254,1.0,1.0,92,0.00,,,0.00,Wunderground v.1.15,2013-07-28 14:27:00,
2013-07-28 09:32:00,67.0,64.3,29.99,SW,217,0.0,1.0,91,0.00,,,0.00,Wunderground v.1.15,2013-07-28 14:32:00,
2013-07-28 09:37:00,67.1,64.4,29.99,SW,218,0.0,1.0,91,0.00,,,0.00,Wunderground v.1.15,2013-07-28 14:37:00,
2013-07-28 09:42:00,67.2,64.5,30.00,West,263,1.0,1.0,91,0.00,,,0.00,Wunderground v.1.15,2013-07-28 14:42:00,
2013-07-28 09:47:00,67.1,64.1,29.99,WNW,284,0.0,2.0,90,0.00,,,0.00,Wunderground v.1.15,2013-07-28 14:47:00,
2013-07-28 09:52:00,67.0,64.0,29.99,WNW,284,0.0,0.0,90,0.00,,,0.00,Wunderground v.1.15,2013-07-28 14:52:00,
2013-07-28 09:57:00,67.1,64.1,29.99,WNW,284,0.0,0.0,90,0.00,,,0.00,Wunderground v.1.15,2013-07-28 14:57:00,
2013-07-28 10:02:00,67.1,64.1,29.99,SW,236,1.0,1.0,90,0.00,,,0.00,Wunderground v.1.15,2013-07-28 15:02:00,
2013-07-28 10:07:00,67.1,64.1,29.99,West,265,0.0,1.0,90,0.00,,,0.00,Wunderground v.1.15,2013-07-28 15:07:00,
2013-07-28 10:12:00,67.2,63.8,29.99,SW,232,0.0,1.0,89,0.00,,,0.00,Wunderground v.1.15,2013-07-28 15:12:00,
2013-07-28 10:17:00,67.3,63.9,29.99,South,181,0.0,1.0,89,0.00,,,0.00,Wunderground v.1.15,2013-07-28 15:17:00,
2013-07-28 10:22:00,67.4,63.7,29.99,South,181,0.0,0.0,88,0.00,,,0.00,Wunderground v.1.15,2013-07-28 15:22:00,
2013-07-28 10:27:00,67.5,63.8,29.99,South,184,0.0,0.0,88,0.00,,,0.00,Wunderground v.1.15,2013-07-28 15:27:00,
2013-07-28 10:32:00,67.6,63.9,29.99,South,181,0.0,0.0,88,0.00,,,0.00,Wunderground v.1.15,2013-07-28 15:32:00,
2013-07-28 10:37:00,67.7,64.0,29.98,South,182,0.0,0.0,88,0.00,,,0.00,Wunderground v.1.15,2013-07-28 15:37:00,
2013-07-28 10:42:00,68.0,64.3,29.99,South,181,0.0,0.0,88,0.00,,,0.00,Wunderground v.1.15,2013-07-28 15:42:00,
2013-07-28 10:47:00,68.1,64.4,29.98,South,181,0.0,0.0,88,0.00,,,0.00,Wunderground v.1.15,2013-07-28 15:47:00,
2013-07-28 10:52:00,68.4,64.7,29.99,South,183,0.0,0.0,88,0.00,,,0.00,Wunderground v.1.15,2013-07-28 15:52:00,
2013-07-28 10:58:00,68.8,64.8,29.99,South,183,0.0,0.0,87,0.00,,,0.00,Wunderground v.1.15,2013-07-28 15:58:00,
2013-07-28 11:03:00,69.1,65.1,29.99,South,180,0.0,0.0,87,0.00,,,0.00,Wunderground v.1.15,2013-07-28 16:03:00,
2013-07-28 11:08:00,69.1,64.7,29.99,South,176,0.0,0.0,86,0.00,,,0.00,Wunderground v.1.15,2013-07-28 16:08:00,
2013-07-28 11:13:00,69.3,64.6,29.99,South,176,0.0,0.0,85,0.00,,,0.00,Wunderground v.1.15,2013-07-28 16:13:00,
2013-07-28 11:18:00,69.3,64.6,29.99,ESE,105,0.0,1.0,85,0.00,,,0.00,Wunderground v.1.15,2013-07-28 16:18:00,
2013-07-28 11:23:00,69.4,64.7,29.99,ESE,104,1.0,1.0,85,0.00,,,0.00,Wunderground v.1.15,2013-07-28 16:23:00,
2013-07-28 11:28:00,69.5,64.5,29.99,NNE,17,1.0,2.0,84,0.00,,,0.00,Wunderground v.1.15,2013-07-28 16:28:00,
2013-07-28 11:33:00,69.7,64.3,30.00,ENE,71,1.0,2.0,83,0.00,,,0.00,Wunderground v.1.15,2013-07-28 16:33:00,
2013-07-28 11:38:00,69.9,64.2,29.99,East,79,0.0,2.0,82,0.00,,,0.00,Wunderground v.1.15,2013-07-28 16:38:00,
2013-07-28 11:43:00,70.3,64.9,29.99,NNE,12,1.0,1.0,83,0.00,,,0.00,Wunderground v.1.15,2013-07-28 16:43:00,
2013-07-28 11:48:00,70.4,65.0,30.00,ENE,58,1.0,2.0,83,0.00,,,0.00,Wunderground v.1.15,2013-07-28 16:48:00,
2013-07-28 11:53:00,70.6,64.8,30.00,ENE,58,0.0,1.0,82,0.00,,,0.00,Wunderground v.1.15,2013-07-28 16:53:00,
2013-07-28 11:58:00,70.8,65.0,30.00,NE,37,0.0,1.0,82,0.00,,,0.00,Wunderground v.1.15,2013-07-28 16:58:00,
2013-07-28 12:03:00,71.2,65.4,30.00,ESE,121,3.0,3.0,82,0.00,,,0.00,Wunderground v.1.15,2013-07-28 17:03:00,
2013-07-28 12:08:00,71.4,65.3,30.00,NE,49,1.0,3.0,81,0.00,,,0.00,Wunderground v.1.15,2013-07-28 17:08:00,
2013-07-28 12:13:00,71.7,65.2,30.00,North,9,0.0,2.0,80,0.00,,,0.00,Wunderground v.1.15,2013-07-28 17:13:00,
2013-07-28 12:18:00,72.2,66.4,30.00,NE,56,1.0,2.0,82,0.00,,,0.00,Wunderground v.1.15,2013-07-28 17:18:00,
2013-07-28 12:23:00,72.4,65.9,30.00,NE,47,2.0,4.0,80,0.00,,,0.00,Wunderground v.1.15,2013-07-28 17:23:00,
2013-07-28 12:28:00,72.7,65.8,30.00,NE,51,1.0,4.0,79,0.00,,,0.00,Wunderground v.1.15,2013-07-28 17:28:00,
2013-07-28 12:33:00,73.3,66.4,30.00,East,83,2.0,2.0,79,0.00,,,0.00,Wunderground v.1.15,2013-07-28 17:33:00,
2013-07-28 12:38:00,73.7,66.0,30.00,ENE,59,4.0,5.0,77,0.00,,,0.00,Wunderground v.1.15,2013-07-28 17:38:00,
2013-07-28 12:43:00,73.8,65.8,30.00,ESE,118,1.0,4.0,76,0.00,,,0.00,Wunderground v.1.15,2013-07-28 17:43:00,
2013-07-28 12:48:00,73.7,66.0,30.00,ENE,69,1.0,4.0,77,0.00,,,0.00,Wunderground v.1.15,2013-07-28 17:48:00,
2013-07-28 12:53:00,73.7,65.7,30.00,ESE,104,0.0,3.0,76,0.00,,,0.00,Wunderground v.1.15,2013-07-28 17:53:00,
2013-07-28 12:58:00,73.8,65.8,30.00,ENE,65,2.0,4.0,76,0.00,,,0.00,Wunderground v.1.15,2013-07-28 17:58:00,
2013-07-28 13:03:00,73.6,65.6,30.00,NNE,21,1.0,2.0,76,0.00,,,0.00,Wunderground v.1.15,2013-07-28 18:03:00,
2013-07-28 13:09:00,73.6,65.9,30.00,ENE,75,2.0,3.0,77,0.00,,,0.00,Wunderground v.1.15,2013-07-28 18:09:00,
2013-07-28 13:15:00,73.7,66.0,30.00,ESE,105,0.0,2.0,77,0.00,,,0.00,Wunderground v.1.15,2013-07-28 18:15:00,
2013-07-28 13:20:00,73.6,65.6,30.00,NE,52,2.0,2.0,76,0.00,,,0.00,Wunderground v.1.15,2013-07-28 18:20:00,
2013-07-28 13:26:00,73.7,66.8,30.01,NNE,27,0.0,2.0,79,0.00,,,0.00,Wunderground v.1.15,2013-07-28 18:26:00,
2013-07-28 13:31:00,74.3,66.6,30.01,NE,41,0.0,1.0,77,0.00,,,0.00,Wunderground v.1.15,2013-07-28 18:31:00,
2013-07-28 13:36:00,74.7,66.2,30.00,East,101,1.0,1.0,75,0.00,,,0.00,Wunderground v.1.15,2013-07-28 18:36:00,
2013-07-28 13:41:00,75.0,66.5,30.00,NE,47,3.0,4.0,75,0.00,,,0.00,Wunderground v.1.15,2013-07-28 18:41:00,
2013-07-28 13:46:00,74.8,66.7,30.00,NE,35,2.0,4.0,76,0.00,,,0.00,Wunderground v.1.15,2013-07-28 18:46:00,
2013-07-28 13:51:00,74.9,66.8,30.00,SE,124,3.0,3.0,76,0.00,,,0.00,Wunderground v.1.15,2013-07-28 18:51:00,
2013-07-28 13:56:00,74.8,65.6,30.00,NNE,27,1.0,4.0,73,0.00,,,0.00,Wunderground v.1.15,2013-07-28 18:56:00,
2013-07-28 14:01:00,75.2,67.1,30.00,East,80,1.0,2.0,76,0.00,,,0.00,Wunderground v.1.15,2013-07-28 19:01:00,
2013-07-28 14:06:00,75.4,65.7,29.99,NNE,22,1.0,3.0,72,0.00,,,0.00,Wunderground v.1.15,2013-07-28 19:06:00,
2013-07-28 14:11:00,75.9,66.2,29.99,NE,36,0.0,2.0,72,0.00,,,0.00,Wunderground v.1.15,2013-07-28 19:11:00,
2013-07-28 14:16:00,76.5,67.2,29.99,SE,127,2.0,3.0,73,0.00,,,0.00,Wunderground v.1.15,2013-07-28 19:16:00,
2013-07-28 14:21:00,76.6,66.5,29.99,NNE,13,0.0,3.0,71,0.00,,,0.00,Wunderground v.1.15,2013-07-28 19:21:00,
2013-07-28 14:26:00,76.7,67.0,29.99,ESE,105,0.0,3.0,72,0.00,,,0.00,Wunderground v.1.15,2013-07-28 19:26:00,
2013-07-28 14:31:00,77.2,66.7,29.99,ESE,104,0.0,1.0,70,0.00,,,0.00,Wunderground v.1.15,2013-07-28 19:31:00,
2013-07-28 14:37:00,77.8,67.6,29.99,NW,319,1.0,1.0,71,0.00,,,0.00,Wunderground v.1.15,2013-07-28 19:37:00,
2013-07-28 14:42:00,78.1,65.4,29.99,NW,316,2.0,3.0,65,0.00,,,0.00,Wunderground v.1.15,2013-07-28 19:42:00,
2013-07-28 14:47:00,78.4,65.7,29.99,NW,326,1.0,3.0,65,0.00,,,0.00,Wunderground v.1.15,2013-07-28 19:47:00,
2013-07-28 14:52:00,78.5,66.6,29.99,NW,304,0.0,2.0,67,0.00,,,0.00,Wunderground v.1.15,2013-07-28 19:52:00,
2013-07-28 14:57:00,78.8,65.1,29.99,NW,311,1.0,2.0,63,0.00,,,0.00,Wunderground v.1.15,2013-07-28 19:57:00,
2013-07-28 15:02:00,78.8,66.0,29.99,NE,41,2.0,2.0,65,0.00,,,0.00,Wunderground v.1.15,2013-07-28 20:02:00,
2013-07-28 15:07:00,78.5,63.5,29.99,NE,51,1.0,2.0,60,0.00,,,0.00,Wunderground v.1.15,2013-07-28 20:07:00,
2013-07-28 15:12:00,78.3,62.8,29.99,NE,49,0.0,1.0,59,0.00,,,0.00,Wunderground v.1.15,2013-07-28 20:12:00,
2013-07-28 15:17:00,78.5,64.4,29.99,NE,50,0.0,1.0,62,0.00,,,0.00,Wunderground v.1.15,2013-07-28 20:17:00,
2013-07-28 15:22:00,78.2,63.6,30.00,NW,325,0.0,1.0,61,0.00,,,0.00,Wunderground v.1.15,2013-07-28 20:22:00,
2013-07-28 15:27:00,78.0,65.3,30.00,ENE,66,1.0,2.0,65,0.00,,,0.00,Wunderground v.1.15,2013-07-28 20:27:00,
2013-07-28 15:32:00,77.2,64.5,29.99,ENE,68,1.0,1.0,65,0.00,,,0.00,Wunderground v.1.15,2013-07-28 20:32:00,
2013-07-28 15:37:00,76.8,64.6,30.00,NE,41,1.0,3.0,66,0.00,,,0.00,Wunderground v.1.15,2013-07-28 20:37:00,
2013-07-28 15:42:00,76.5,65.1,30.00,NE,47,0.0,2.0,68,0.00,,,0.00,Wunderground v.1.15,2013-07-28 20:42:00,
2013-07-28 15:48:00,76.4,65.1,29.99,ENE,63,2.0,3.0,68,0.00,,,0.00,Wunderground v.1.15,2013-07-28 20:48:00,
2013-07-28 15:53:00,76.1,64.8,29.99,NE,47,2.0,3.0,68,0.00,,,0.00,Wunderground v.1.15,2013-07-28 20:53:00,
2013-07-28 15:58:00,75.9,64.2,29.99,ENE,77,2.0,3.0,67,0.00,,,0.00,Wunderground v.1.15,2013-07-28 20:58:00,
2013-07-28 16:03:00,75.8,64.5,29.99,NNE,25,2.0,3.0,68,0.00,,,0.00,Wunderground v.1.15,2013-07-28 21:03:00,
2013-07-28 16:08:00,75.7,65.2,29.99,NNE,18,1.0,3.0,70,0.00,,,0.00,Wunderground v.1.15,2013-07-28 21:08:00,
2013-07-28 16:13:00,75.5,65.0,29.99,ENE,69,1.0,4.0,70,0.00,,,0.00,Wunderground v.1.15,2013-07-28 21:13:00,
2013-07-28 16:18:00,75.1,65.1,30.00,NE,56,1.0,5.0,71,0.00,,,0.00,Wunderground v.1.15,2013-07-28 21:18:00,
2013-07-28 16:23:00,74.6,66.1,30.00,ENE,75,2.0,4.0,75,0.00,,,0.00,Wunderground v.1.15,2013-07-28 21:23:00,
2013-07-28 16:28:00,74.1,66.0,29.99,NE,45,2.0,4.0,76,0.00,,,0.00,Wunderground v.1.15,2013-07-28 21:28:00,
2013-07-28 16:33:00,73.6,66.3,29.99,ENE,62,2.0,4.0,78,0.00,,,0.00,Wunderground v.1.15,2013-07-28 21:33:00,
2013-07-28 16:38:00,73.3,66.4,29.99,NE,56,1.0,4.0,79,0.00,,,0.00,Wunderground v.1.15,2013-07-28 21:38:00,
2013-07-28 16:43:00,73.0,66.1,29.99,ENE,65,2.0,5.0,79,0.00,,,0.00,Wunderground v.1.15,2013-07-28 21:43:00,
2013-07-28 16:48:00,72.8,66.6,30.00,NE,40,2.0,5.0,81,0.00,,,0.00,Wunderground v.1.15,2013-07-28 21:48:00,
2013-07-28 16:53:00,72.5,66.7,30.00,NE,56,1.0,3.0,82,0.00,,,0.00,Wunderground v.1.15,2013-07-28 21:53:00,
2013-07-28 16:58:00,72.3,66.5,29.99,ENE,75,2.0,5.0,82,0.00,,,0.00,Wunderground v.1.15,2013-07-28 21:58:00,
2013-07-28 17:03:00,72.1,67.3,29.99,ENE,64,1.0,2.0,85,0.00,,,0.01,Wunderground v.1.15,2013-07-28 22:03:00,
2013-07-28 17:08:00,71.8,67.0,29.99,NNE,27,3.0,4.0,85,0.00,,,0.01,Wunderground v.1.15,2013-07-28 22:08:00,
2013-07-28 17:13:00,71.6,67.2,29.99,ENE,73,1.0,5.0,86,0.00,,,0.01,Wunderground v.1.15,2013-07-28 22:13:00,
2013-07-28 17:18:00,71.4,67.0,29.99,NNE,27,2.0,7.0,86,0.00,,,0.01,Wunderground v.1.15,2013-07-28 22:18:00,
2013-07-28 17:23:00,71.4,67.3,29.99,ESE,120,0.0,4.0,87,0.00,,,0.01,Wunderground v.1.15,2013-07-28 22:23:00,
2013-07-28 17:28:00,71.3,66.9,29.99,NNE,32,0.0,4.0,86,0.00,,,0.01,Wunderground v.1.15,2013-07-28 22:28:00,
2013-07-28 17:33:00,71.4,67.3,30.00,NE,40,1.0,2.0,87,0.00,,,0.01,Wunderground v.1.15,2013-07-28 22:33:00,
2013-07-28 17:38:00,71.4,67.3,29.99,NE,34,2.0,4.0,87,0.00,,,0.01,Wunderground v.1.15,2013-07-28 22:38:00,
2013-07-28 17:43:00,71.4,67.0,29.99,East,88,1.0,5.0,86,0.00,,,0.01,Wunderground v.1.15,2013-07-28 22:43:00,
2013-07-28 17:48:00,71.5,67.4,29.99,East,101,1.0,5.0,87,0.00,,,0.01,Wunderground v.1.15,2013-07-28 22:48:00,
2013-07-28 17:53:00,71.6,67.5,29.99,ENE,66,2.0,4.0,87,0.00,,,0.01,Wunderground v.1.15,2013-07-28 22:53:00,
2013-07-28 17:58:00,71.8,68.1,29.99,NNE,30,2.0,4.0,88,0.00,,,0.01,Wunderground v.1.15,2013-07-28 22:58:00,
2013-07-28 18:03:00,71.7,67.6,29.99,East,79,1.0,2.0,87,0.00,,,0.01,Wunderground v.1.15,2013-07-28 23:03:00,
2013-07-28 18:08:00,71.7,67.6,29.99,ENE,60,6.0,6.0,87,0.00,,,0.01,Wunderground v.1.15,2013-07-28 23:08:00,
2013-07-28 18:13:00,71.5,67.1,29.99,ENE,60,2.0,5.0,86,0.00,,,0.01,Wunderground v.1.15,2013-07-28 23:13:00,
2013-07-28 18:18:00,71.5,67.4,29.99,ENE,62,2.0,5.0,87,0.00,,,0.01,Wunderground v.1.15,2013-07-28 23:18:00,
2013-07-28 18:23:00,71.4,67.0,30.00,ENE,64,1.0,2.0,86,0.00,,,0.01,Wunderground v.1.15,2013-07-28 23:23:00,
2013-07-28 18:28:00,71.3,66.9,30.00,ENE,64,2.0,5.0,86,0.00,,,0.01,Wunderground v.1.15,2013-07-28 23:28:00,
2013-07-28 18:33:00,71.2,66.8,30.00,ENE,64,5.0,5.0,86,0.00,,,0.01,Wunderground v.1.15,2013-07-28 23:33:00,
2013-07-28 18:38:00,71.2,67.1,30.00,ESE,115,1.0,5.0,87,0.00,,,0.01,Wunderground v.1.15,2013-07-28 23:38:00,
2013-07-28 18:43:00,71.2,67.1,30.00,East,97,0.0,3.0,87,0.00,,,0.01,Wunderground v.1.15,2013-07-28 23:43:00,
2013-07-28 18:48:00,71.1,67.0,30.00,ENE,58,1.0,4.0,87,0.00,,,0.01,Wunderground v.1.15,2013-07-28 23:48:00,
2013-07-28 18:53:00,71.0,66.9,30.00,East,84,1.0,4.0,87,0.00,,,0.01,Wunderground v.1.15,2013-07-28 23:53:00,
2013-07-28 18:58:00,70.9,66.8,30.00,ENE,72,2.0,4.0,87,0.00,,,0.01,Wunderground v.1.15,2013-07-28 23:58:00,
2013-07-28 19:04:00,70.7,66.3,30.00,ESE,105,2.0,3.0,86,0.00,,,0.01,Wunderground v.1.15,2013-07-29 00:04:00,
2013-07-28 19:10:00,70.6,66.2,30.00,East,90,2.0,2.0,86,0.00,,,0.01,Wunderground v.1.15,2013-07-29 00:10:00,
2013-07-28 19:16:00,70.5,66.1,30.00,East,79,2.0,2.0,86,0.00,,,0.01,Wunderground v.1.15,2013-07-29 00:16:00,
2013-07-28 19:21:00,70.4,66.3,30.00,East,90,2.0,2.0,87,0.00,,,0.01,Wunderground v.1.15,2013-07-29 00:21:00,
2013-07-28 19:27:00,70.3,66.6,30.00,NE,49,0.0,2.0,88,0.00,,,0.01,Wunderground v.1.15,2013-07-29 00:27:00,
2013-07-28 19:32:00,70.3,66.6,30.00,ENE,73,0.0,1.0,88,0.00,,,0.01,Wunderground v.1.15,2013-07-29 00:32:00,
2013-07-28 19:37:00,70.2,66.5,30.00,ENE,60,1.0,3.0,88,0.00,,,0.01,Wunderground v.1.15,2013-07-29 00:37:00,
2013-07-28 19:42:00,70.2,66.5,30.00,NNE,13,3.0,3.0,88,0.00,,,0.01,Wunderground v.1.15,2013-07-29 00:42:00,
2013-07-28 19:47:00,70.1,66.4,30.01,ENE,60,1.0,3.0,88,0.00,,,0.01,Wunderground v.1.15,2013-07-29 00:47:00,
2013-07-28 19:52:00,70.0,66.3,30.00,ENE,69,0.0,1.0,88,0.00,,,0.01,Wunderground v.1.15,2013-07-29 00:52:00,
2013-07-28 19:57:00,69.9,66.2,30.01,ENE,69,0.0,1.0,88,0.00,,,0.01,Wunderground v.1.15,2013-07-29 00:57:00,
2013-07-28 20:02:00,69.9,66.2,30.00,ESE,108,1.0,1.0,88,0.00,,,0.01,Wunderground v.1.15,2013-07-29 01:02:00,
2013-07-28 20:07:00,69.8,66.4,30.00,ESE,108,0.0,1.0,89,0.00,,,0.01,Wunderground v.1.15,2013-07-29 01:07:00,
2013-07-28 20:12:00,69.7,66.3,30.00,ESE,108,0.0,0.0,89,0.00,,,0.01,Wunderground v.1.15,2013-07-29 01:12:00,
2013-07-28 20:17:00,69.6,66.2,30.00,ESE,109,0.0,0.0,89,0.00,,,0.01,Wunderground v.1.15,2013-07-29 01:17:00,
2013-07-28 20:22:00,69.6,66.2,30.00,ESE,108,0.0,0.0,89,0.00,,,0.01,Wunderground v.1.15,2013-07-29 01:22:00,
2013-07-28 20:27:00,69.5,66.1,30.00,ESE,108,0.0,0.0,89,0.00,,,0.01,Wunderground v.1.15,2013-07-29 01:27:00,
2013-07-28 20:33:00,69.4,66.0,30.00,ESE,108,0.0,0.0,89,0.00,,,0.01,Wunderground v.1.15,2013-07-29 01:33:00,
2013-07-28 20:38:00,69.3,65.6,30.00,ESE,109,0.0,0.0,88,0.00,,,0.01,Wunderground v.1.15,2013-07-29 01:38:00,
2013-07-28 20:43:00,69.4,65.7,30.00,ESE,108,0.0,0.0,88,0.00,,,0.01,Wunderground v.1.15,2013-07-29 01:43:00,
2013-07-28 20:49:00,69.5,65.8,30.00,ESE,108,0.0,0.0,88,0.00,,,0.01,Wunderground v.1.15,2013-07-29 01:49:00,
2013-07-28 20:54:00,69.4,66.0,30.00,ESE,110,0.0,0.0,89,0.00,,,0.01,Wunderground v.1.15,2013-07-29 01:54:00,
2013-07-28 20:59:00,69.2,65.8,30.00,ESE,110,0.0,0.0,89,0.00,,,0.01,Wunderground v.1.15,2013-07-29 01:59:00,
2013-07-28 21:04:00,69.1,66.0,30.00,ESE,110,0.0,0.0,90,0.00,,,0.01,Wunderground v.1.15,2013-07-29 02:04:00,
2013-07-28 21:10:00,68.9,65.8,30.00,ESE,110,0.0,0.0,90,0.00,,,0.01,Wunderground v.1.15,2013-07-29 02:10:00,
2013-07-28 21:15:00,68.8,65.7,30.00,ESE,110,0.0,0.0,90,0.00,,,0.01,Wunderground v.1.15,2013-07-29 02:15:00,
2013-07-28 21:20:00,68.8,66.1,30.00,East,88,0.0,0.0,91,0.00,,,0.01,Wunderground v.1.15,2013-07-29 02:20:00,
2013-07-28 21:25:00,68.8,66.4,30.01,East,88,0.0,1.0,92,0.00,,,0.01,Wunderground v.1.15,2013-07-29 02:25:00,
2013-07-28 21:30:00,68.7,66.0,30.00,ESE,112,1.0,2.0,91,0.00,,,0.01,Wunderground v.1.15,2013-07-29 02:30:00,
2013-07-28 21:35:00,68.6,65.9,30.01,East,96,0.0,2.0,91,0.00,,,0.01,Wunderground v.1.15,2013-07-29 02:35:00,
2013-07-28 21:40:00,68.5,66.1,30.01,East,96,0.0,0.0,92,0.00,,,0.01,Wunderground v.1.15,2013-07-29 02:40:00,
2013-07-28 21:45:00,68.5,66.1,30.01,East,97,0.0,0.0,92,0.00,,,0.01,Wunderground v.1.15,2013-07-29 02:45:00,
2013-07-28 21:50:00,68.5,66.1,30.01,SSE,161,0.0,0.0,92,0.00,,,0.01,Wunderground v.1.15,2013-07-29 02:50:00,
2013-07-28 21:56:00,68.6,66.2,30.01,SSE,161,0.0,0.0,92,0.00,,,0.01,Wunderground v.1.15,2013-07-29 02:56:00,
2013-07-28 22:01:00,68.7,66.3,30.01,ESE,118,0.0,0.0,92,0.00,,,0.01,Wunderground v.1.15,2013-07-29 03:01:00,
2013-07-28 22:07:00,68.6,65.9,30.01,ESE,118,0.0,1.0,91,0.00,,,0.01,Wunderground v.1.15,2013-07-29 03:07:00,
2013-07-28 22:12:00,68.7,66.3,30.01,ESE,113,0.0,0.0,92,0.00,,,0.01,Wunderground v.1.15,2013-07-29 03:12:00,
2013-07-28 22:17:00,68.8,66.4,30.02,East,85,0.0,1.0,92,0.00,,,0.01,Wunderground v.1.15,2013-07-29 03:17:00,
2013-07-28 22:22:00,68.8,66.4,30.02,East,88,0.0,0.0,92,0.00,,,0.01,Wunderground v.1.15,2013-07-29 03:22:00,
2013-07-28 22:27:00,68.7,66.3,30.02,ESE,105,0.0,1.0,92,0.00,,,0.01,Wunderground v.1.15,2013-07-29 03:27:00,
2013-07-28 22:32:00,68.6,66.2,30.02,ESE,105,0.0,0.0,92,0.00,,,0.01,Wunderground v.1.15,2013-07-29 03:32:00,
2013-07-28 22:37:00,68.6,66.2,30.02,East,86,0.0,0.0,92,0.00,,,0.01,Wunderground v.1.15,2013-07-29 03:37:00,
2013-07-28 22:42:00,68.5,66.1,30.02,East,86,0.0,0.0,92,0.00,,,0.01,Wunderground v.1.15,2013-07-29 03:42:00,
2013-07-28 22:48:00,68.5,66.1,30.02,SE,124,1.0,1.0,92,0.00,,,0.01,Wunderground v.1.15,2013-07-29 03:48:00,
2013-07-28 22:54:00,68.6,66.2,30.02,SE,124,0.0,0.0,92,0.00,,,0.01,Wunderground v.1.15,2013-07-29 03:54:00,
2013-07-28 22:59:00,68.5,66.1,30.02,ESE,121,0.0,0.0,92,0.00,,,0.01,Wunderground v.1.15,2013-07-29 03:59:00,
2013-07-28 23:01:00,68.5,66.1,30.02,ESE,121,0.0,1.0,92,0.00,,,0.01,Wunderground v.1.15,2013-07-29 04:01:00,
2013-07-28 23:03:00,68.6,66.2,30.01,ESE,121,0.0,1.0,92,0.00,,,0.01,Wunderground v.1.15,2013-07-29 04:03:00,
2013-07-28 23:08:00,68.6,66.2,30.01,East,91,0.0,2.0,92,0.00,,,0.01,Wunderground v.1.15,2013-07-29 04:08:00,
2013-07-28 23:13:00,68.6,66.2,30.01,ESE,113,1.0,2.0,92,0.00,,,0.01,Wunderground v.1.15,2013-07-29 04:13:00,
2013-07-28 23:18:00,68.6,66.2,30.01,ESE,110,0.0,2.0,92,0.00,,,0.01,Wunderground v.1.15,2013-07-29 04:18:00,
2013-07-28 23:23:00,68.5,66.1,30.01,ESE,110,0.0,1.0,92,0.00,,,0.01,Wunderground v.1.15,2013-07-29 04:23:00,
2013-07-28 23:28:00,68.5,66.1,30.02,ESE,110,0.0,1.0,92,0.00,,,0.01,Wunderground v.1.15,2013-07-29 04:28:00,
2013-07-28 23:33:00,68.4,66.0,30.02,ESE,110,0.0,1.0,92,0.00,,,0.01,Wunderground v.1.15,2013-07-29 04:33:00,
2013-07-28 23:38:00,68.3,65.9,30.01,ESE,110,0.0,1.0,92,0.00,,,0.01,Wunderground v.1.15,2013-07-29 04:38:00,
2013-07-28 23:43:00,68.3,65.9,30.01,ESE,102,2.0,2.0,92,0.00,,,0.01,Wunderground v.1.15,2013-07-29 04:43:00,
2013-07-28 23:48:00,68.4,65.7,30.01,NE,50,1.0,3.0,91,0.00,,,0.01,Wunderground v.1.15,2013-07-29 04:48:00,
2013-07-28 23:53:00,68.4,66.0,30.01,NE,54,0.0,1.0,92,0.00,,,0.01,Wunderground v.1.15,2013-07-29 04:53:00,
2013-07-28 23:58:00,68.4,66.0,30.02,NE,56,0.0,2.0,92,0.00,,,0.01,Wunderground v.1.15,2013-07-29 04:58:00,